sensor_id;sensor_type;location;lat;lon;timestamp;pressure;altitude;pressure_sealevel;temperature;humidity
32320;BME280;19080;51.750;5.888;2023-02-18T00:00:21;101978.31;;;11.43;100.00
32320;BME280;19080;51.750;5.888;2023-02-18T00:02:49;102033.19;;;11.69;100.00
32320;BME280;19080;51.750;5.888;2023-02-18T00:05:18;101992.66;;;11.48;100.00
32320;BME280;19080;51.750;5.888;2023-02-18T00:07:44;101929.66;;;11.16;100.00
32320;BME280;19080;51.750;5.888;2023-02-18T00:10:13;101884.53;;;10.89;100.00
32320;BME280;19080;51.750;5.888;2023-02-18T00:12:40;101956.59;;;11.28;100.00
32320;BME280;19080;51.750;5.888;2023-02-18T00:15:07;102002.97;;;11.67;100.00
32320;BME280;19080;51.750;5.888;2023-02-18T00:17:35;101989.00;;;11.74;100.00
32320;BME280;19080;51.750;5.888;2023-02-18T00:20:02;101916.31;;;11.44;100.00
32320;BME280;19080;51.750;5.888;2023-02-18T00:22:29;101980.66;;;11.62;100.00
32320;BME280;19080;51.750;5.888;2023-02-18T00:24:56;101981.78;;;11.70;100.00
32320;BME280;19080;51.750;5.888;2023-02-18T00:27:22;101974.56;;;11.66;100.00
32320;BME280;19080;51.750;5.888;2023-02-18T00:29:49;101951.19;;;11.55;100.00
32320;BME280;19080;51.750;5.888;2023-02-18T00:32:16;101982.72;;;11.72;100.00
32320;BME280;19080;51.750;5.888;2023-02-18T00:34:44;101953.97;;;11.59;100.00
32320;BME280;19080;51.750;5.888;2023-02-18T00:37:10;101956.72;;;11.62;100.00
32320;BME280;19080;51.750;5.888;2023-02-18T00:39:37;101902.00;;;11.39;100.00
32320;BME280;19080;51.750;5.888;2023-02-18T00:42:04;101949.75;;;11.66;100.00
32320;BME280;19080;51.750;5.888;2023-02-18T00:44:30;101877.94;;;11.34;100.00
32320;BME280;19080;51.750;5.888;2023-02-18T00:46:57;101976.09;;;11.87;100.00
32320;BME280;19080;51.750;5.888;2023-02-18T00:49:23;101960.75;;;11.78;100.00
32320;BME280;19080;51.750;5.888;2023-02-18T00:51:50;101951.03;;;11.79;100.00
32320;BME280;19080;51.750;5.888;2023-02-18T00:54:17;101889.72;;;11.44;100.00
32320;BME280;19080;51.750;5.888;2023-02-18T00:56:43;101926.09;;;11.77;100.00
32320;BME280;19080;51.750;5.888;2023-02-18T00:59:10;101870.09;;;11.39;100.00
32320;BME280;19080;51.750;5.888;2023-02-18T01:01:36;101871.16;;;11.46;100.00
32320;BME280;19080;51.750;5.888;2023-02-18T01:04:06;101943.16;;;11.83;100.00
32320;BME280;19080;51.750;5.888;2023-02-18T01:06:33;101919.78;;;11.73;100.00
32320;BME280;19080;51.750;5.888;2023-02-18T01:09:01;101947.94;;;11.95;100.00
32320;BME280;19080;51.750;5.888;2023-02-18T01:11:28;101875.84;;;11.54;100.00
32320;BME280;19080;51.750;5.888;2023-02-18T01:13:55;101931.63;;;11.83;100.00
32320;BME280;19080;51.750;5.888;2023-02-18T01:16:21;101950.53;;;11.93;100.00
32320;BME280;19080;51.750;5.888;2023-02-18T01:18:48;101842.69;;;11.41;100.00
32320;BME280;19080;51.750;5.888;2023-02-18T01:21:15;101862.50;;;11.53;100.00
32320;BME280;19080;51.750;5.888;2023-02-18T01:23:42;101917.56;;;11.87;100.00
32320;BME280;19080;51.750;5.888;2023-02-18T01:26:09;101856.25;;;11.51;100.00
32320;BME280;19080;51.750;5.888;2023-02-18T01:28:38;101900.19;;;11.69;100.00
32320;BME280;19080;51.750;5.888;2023-02-18T01:31:08;101929.22;;;11.92;100.00
32320;BME280;19080;51.750;5.888;2023-02-18T01:33:36;101903.03;;;11.76;100.00
32320;BME280;19080;51.750;5.888;2023-02-18T01:36:03;101893.16;;;11.71;100.00
32320;BME280;19080;51.750;5.888;2023-02-18T01:38:30;101909.53;;;11.85;100.00
32320;BME280;19080;51.750;5.888;2023-02-18T01:40:57;101826.69;;;11.40;100.00
32320;BME280;19080;51.750;5.888;2023-02-18T01:43:23;101897.81;;;11.79;100.00
32320;BME280;19080;51.750;5.888;2023-02-18T01:51:21;101899.88;;;11.89;100.00
32320;BME280;19080;51.750;5.888;2023-02-18T01:56:54;101817.66;;;11.33;100.00
32320;BME280;19080;51.750;5.888;2023-02-18T01:59:27;101927.53;;;11.95;100.00
32320;BME280;19080;51.750;5.888;2023-02-18T02:01:56;101825.84;;;11.41;100.00
32320;BME280;19080;51.750;5.888;2023-02-18T02:04:23;101907.59;;;11.80;100.00
32320;BME280;19080;51.750;5.888;2023-02-18T02:06:51;101849.00;;;11.45;100.00
32320;BME280;19080;51.750;5.888;2023-02-18T02:09:19;101835.50;;;11.37;100.00
32320;BME280;19080;51.750;5.888;2023-02-18T02:14:54;101881.31;;;11.60;100.00
32320;BME280;19080;51.750;5.888;2023-02-18T02:17:52;101886.47;;;11.54;100.00
32320;BME280;19080;51.750;5.888;2023-02-18T02:26:08;101854.22;;;11.42;100.00
32320;BME280;19080;51.750;5.888;2023-02-18T02:31:31;101874.13;;;11.56;100.00
32320;BME280;19080;51.750;5.888;2023-02-18T02:34:36;101844.31;;;11.36;100.00
32320;BME280;19080;51.750;5.888;2023-02-18T02:50:44;101831.25;;;11.44;100.00
32320;BME280;19080;51.750;5.888;2023-02-18T02:53:22;101816.84;;;11.36;100.00
32320;BME280;19080;51.750;5.888;2023-02-18T02:55:51;101825.84;;;11.41;100.00
32320;BME280;19080;51.750;5.888;2023-02-18T02:58:18;101764.81;;;11.13;100.00
32320;BME280;19080;51.750;5.888;2023-02-18T03:04:08;101808.09;;;11.40;100.00
32320;BME280;19080;51.750;5.888;2023-02-18T03:11:58;101766.84;;;11.23;100.00
32320;BME280;19080;51.750;5.888;2023-02-18T03:14:43;101761.78;;;11.32;100.00
32320;BME280;19080;51.750;5.888;2023-02-18T03:17:22;101780.56;;;11.38;100.00
32320;BME280;19080;51.750;5.888;2023-02-18T03:19:54;101759.81;;;11.25;100.00
32320;BME280;19080;51.750;5.888;2023-02-18T03:22:24;101685.16;;;10.83;100.00
32320;BME280;19080;51.750;5.888;2023-02-18T03:24:55;101674.72;;;10.89;100.00
32320;BME280;19080;51.750;5.888;2023-02-18T03:27:28;101695.41;;;11.00;100.00
32320;BME280;19080;51.750;5.888;2023-02-18T03:30:10;101754.75;;;11.34;100.00
32320;BME280;19080;51.750;5.888;2023-02-18T03:32:38;101732.28;;;11.21;100.00
32320;BME280;19080;51.750;5.888;2023-02-18T03:35:08;101729.50;;;11.17;100.00
32320;BME280;19080;51.750;5.888;2023-02-18T03:37:41;101677.50;;;10.93;100.00
32320;BME280;19080;51.750;5.888;2023-02-18T03:40:09;101719.72;;;11.16;100.00
32320;BME280;19080;51.750;5.888;2023-02-18T03:42:36;101742.25;;;11.30;100.00
32320;BME280;19080;51.750;5.888;2023-02-18T03:45:05;101723.44;;;11.22;100.00
32320;BME280;19080;51.750;5.888;2023-02-18T03:47:32;101717.16;;;11.19;100.00
32320;BME280;19080;51.750;5.888;2023-02-18T03:49:58;101733.34;;;11.28;100.00
32320;BME280;19080;51.750;5.888;2023-02-18T03:52:25;101705.69;;;11.21;100.00
32320;BME280;19080;51.750;5.888;2023-02-18T03:54:52;101717.31;;;11.25;100.00
32320;BME280;19080;51.750;5.888;2023-02-18T03:57:18;101681.41;;;11.07;100.00
32320;BME280;19080;51.750;5.888;2023-02-18T03:59:45;101631.16;;;10.82;100.00
32320;BME280;19080;51.750;5.888;2023-02-18T04:02:11;101692.13;;;11.11;100.00
32320;BME280;19080;51.750;5.888;2023-02-18T04:04:38;101623.97;;;10.78;100.00
32320;BME280;19080;51.750;5.888;2023-02-18T04:07:05;101706.75;;;11.28;100.00
32320;BME280;19080;51.750;5.888;2023-02-18T04:09:31;101686.16;;;11.19;100.00
32320;BME280;19080;51.750;5.888;2023-02-18T04:11:58;101691.56;;;11.22;100.00
32320;BME280;19080;51.750;5.888;2023-02-18T04:14:24;101617.00;;;10.83;100.00
32320;BME280;19080;51.750;5.888;2023-02-18T04:16:51;101615.06;;;10.76;100.00
32320;BME280;19080;51.750;5.888;2023-02-18T04:19:18;101649.22;;;10.95;100.00
32320;BME280;19080;51.750;5.888;2023-02-18T04:21:44;101635.72;;;10.88;100.00
32320;BME280;19080;51.750;5.888;2023-02-18T04:24:11;101658.13;;;10.97;100.00
32320;BME280;19080;51.750;5.888;2023-02-18T04:26:37;101642.91;;;10.92;100.00
32320;BME280;19080;51.750;5.888;2023-02-18T04:29:04;101575.69;;;10.60;100.00
32320;BME280;19080;51.750;5.888;2023-02-18T04:31:31;101607.03;;;10.74;100.00
32320;BME280;19080;51.750;5.888;2023-02-18T04:33:57;101658.13;;;10.97;100.00
32320;BME280;19080;51.750;5.888;2023-02-18T04:36:24;101644.84;;;10.97;100.00
32320;BME280;19080;51.750;5.888;2023-02-18T04:38:51;101655.53;;;11.00;100.00
32320;BME280;19080;51.750;5.888;2023-02-18T04:41:17;101580.97;;;10.60;100.00
32320;BME280;19080;51.750;5.888;2023-02-18T04:43:44;101667.22;;;11.07;100.00
32320;BME280;19080;51.750;5.888;2023-02-18T04:46:10;101673.44;;;11.07;100.00
32320;BME280;19080;51.750;5.888;2023-02-18T04:48:37;101589.13;;;10.66;100.00
32320;BME280;19080;51.750;5.888;2023-02-18T04:51:04;101541.69;;;10.47;100.00
32320;BME280;19080;51.750;5.888;2023-02-18T04:53:31;101669.22;;;11.16;100.00
32320;BME280;19080;51.750;5.888;2023-02-18T04:55:57;101657.44;;;11.04;100.00
32320;BME280;19080;51.750;5.888;2023-02-18T04:58:24;101643.09;;;10.98;100.00
32320;BME280;19080;51.750;5.888;2023-02-18T05:00:51;101599.97;;;10.75;100.00
32320;BME280;19080;51.750;5.888;2023-02-18T05:03:19;101644.06;;;11.01;100.00
32320;BME280;19080;51.750;5.888;2023-02-18T05:05:45;101543.34;;;10.41;100.00
32320;BME280;19080;51.750;5.888;2023-02-18T05:08:12;101581.16;;;10.66;100.00
32320;BME280;19080;51.750;5.888;2023-02-18T05:10:39;101556.88;;;10.52;100.00
32320;BME280;19080;51.750;5.888;2023-02-18T05:13:05;101637.69;;;10.95;100.00
32320;BME280;19080;51.750;5.888;2023-02-18T05:15:32;101639.56;;;10.99;100.00
32320;BME280;19080;51.750;5.888;2023-02-18T05:17:59;101653.09;;;11.08;100.00
32320;BME280;19080;51.750;5.888;2023-02-18T05:20:26;101610.06;;;10.88;100.00
32320;BME280;19080;51.750;5.888;2023-02-18T05:22:52;101579.44;;;10.68;100.00
32320;BME280;19080;51.750;5.888;2023-02-18T05:25:19;101607.50;;;10.91;100.00
32320;BME280;19080;51.750;5.888;2023-02-18T05:27:45;101563.47;;;10.66;100.00
32320;BME280;19080;51.750;5.888;2023-02-18T05:30:12;101554.31;;;10.55;100.00
32320;BME280;19080;51.750;5.888;2023-02-18T05:32:39;101637.19;;;11.09;100.00
32320;BME280;19080;51.750;5.888;2023-02-18T05:35:06;101545.69;;;10.64;100.00
32320;BME280;19080;51.750;5.888;2023-02-18T05:37:33;101554.56;;;10.64;100.00
32320;BME280;19080;51.750;5.888;2023-02-18T05:39:59;101597.72;;;10.90;100.00
32320;BME280;19080;51.750;5.888;2023-02-18T05:42:26;101537.44;;;10.53;100.00
32320;BME280;19080;51.750;5.888;2023-02-18T05:44:53;101545.69;;;10.64;100.00
32320;BME280;19080;51.750;5.888;2023-02-18T05:47:19;101622.88;;;11.04;100.00
32320;BME280;19080;51.750;5.888;2023-02-18T05:49:46;101620.28;;;11.06;100.00
32320;BME280;19080;51.750;5.888;2023-02-18T05:52:12;101577.88;;;10.76;100.00
32320;BME280;19080;51.750;5.888;2023-02-18T05:54:39;101603.91;;;10.89;100.00
32320;BME280;19080;51.750;5.888;2023-02-18T05:57:06;101581.47;;;10.78;100.00
32320;BME280;19080;51.750;5.888;2023-02-18T05:59:33;101595.09;;;10.92;100.00
32320;BME280;19080;51.750;5.888;2023-02-18T06:01:59;101508.00;;;10.44;100.00
32320;BME280;19080;51.750;5.888;2023-02-18T06:04:26;101600.47;;;10.93;100.00
32320;BME280;19080;51.750;5.888;2023-02-18T06:06:53;101566.25;;;10.71;100.00
32320;BME280;19080;51.750;5.888;2023-02-18T06:09:20;101579.75;;;10.80;100.00
32320;BME280;19080;51.750;5.888;2023-02-18T06:11:47;101616.56;;;10.99;100.00
32320;BME280;19080;51.750;5.888;2023-02-18T06:14:14;101603.16;;;10.95;100.00
32320;BME280;19080;51.750;5.888;2023-02-18T06:16:40;101531.09;;;10.47;100.00
32320;BME280;19080;51.750;5.888;2023-02-18T06:19:07;101597.66;;;10.87;100.00
32320;BME280;19080;51.750;5.888;2023-02-18T06:21:34;101613.75;;;10.93;100.00
32320;BME280;19080;51.750;5.888;2023-02-18T06:24:00;101583.28;;;10.79;100.00
32320;BME280;19080;51.750;5.888;2023-02-18T06:26:27;101579.75;;;10.80;100.00
32320;BME280;19080;51.750;5.888;2023-02-18T06:28:54;101587.03;;;10.87;100.00
32320;BME280;19080;51.750;5.888;2023-02-18T06:31:21;101592.34;;;10.87;100.00
32320;BME280;19080;51.750;5.888;2023-02-18T06:33:47;101500.88;;;10.41;100.00
32320;BME280;19080;51.750;5.888;2023-02-18T06:36:14;101559.28;;;10.76;100.00
32320;BME280;19080;51.750;5.888;2023-02-18T06:38:43;101551.97;;;10.67;100.00
32320;BME280;19080;51.750;5.888;2023-02-18T06:41:11;101580.63;;;10.79;100.00
32320;BME280;19080;51.750;5.888;2023-02-18T06:43:38;101597.84;;;10.95;100.00
32320;BME280;19080;51.750;5.888;2023-02-18T06:46:05;101522.34;;;10.51;100.00
32320;BME280;19080;51.750;5.888;2023-02-18T06:48:32;101603.03;;;10.90;100.00
32320;BME280;19080;51.750;5.888;2023-02-18T06:50:59;101538.50;;;10.60;100.00
32320;BME280;19080;51.750;5.888;2023-02-18T06:53:26;101565.41;;;10.73;100.00
32320;BME280;19080;51.750;5.888;2023-02-18T06:55:52;101585.09;;;10.82;100.00
32320;BME280;19080;51.750;5.888;2023-02-18T06:58:19;101570.63;;;10.69;100.00
32320;BME280;19080;51.750;5.888;2023-02-18T07:00:46;101595.78;;;10.83;100.00
32320;BME280;19080;51.750;5.888;2023-02-18T07:03:13;101607.38;;;10.87;100.00
32320;BME280;19080;51.750;5.888;2023-02-18T07:05:41;101537.38;;;10.50;100.00
32320;BME280;19080;51.750;5.888;2023-02-18T07:08:08;101553.50;;;10.58;100.00
32320;BME280;19080;51.750;5.888;2023-02-18T07:10:34;101524.88;;;10.46;100.00
32320;BME280;19080;51.750;5.888;2023-02-18T07:13:01;101506.09;;;10.37;100.00
32320;BME280;19080;51.750;5.888;2023-02-18T07:15:27;101534.72;;;10.50;100.00
32320;BME280;19080;51.750;5.888;2023-02-18T07:17:54;101576.75;;;10.66;100.00
32320;BME280;19080;51.750;5.888;2023-02-18T07:20:21;101583.97;;;10.72;100.00
32320;BME280;19080;51.750;5.888;2023-02-18T07:22:49;101606.44;;;10.85;100.00
32320;BME280;19080;51.750;5.888;2023-02-18T07:25:16;101622.41;;;10.86;100.00
32320;BME280;19080;51.750;5.888;2023-02-18T07:27:42;101580.28;;;10.67;100.00
32320;BME280;19080;51.750;5.888;2023-02-18T07:30:09;101605.38;;;10.78;100.00
32320;BME280;19080;51.750;5.888;2023-02-18T07:32:36;101602.47;;;10.69;100.00
32320;BME280;19080;51.750;5.888;2023-02-18T07:35:04;101589.88;;;10.62;100.00
32320;BME280;19080;51.750;5.888;2023-02-18T07:37:31;101510.94;;;10.20;100.00
32320;BME280;19080;51.750;5.888;2023-02-18T07:39:58;101618.59;;;10.76;100.00
32320;BME280;19080;51.750;5.888;2023-02-18T07:42:25;101572.69;;;10.48;100.00
32320;BME280;19080;51.750;5.888;2023-02-18T07:44:51;101606.69;;;10.61;100.00
32320;BME280;19080;51.750;5.888;2023-02-18T07:47:18;101602.13;;;10.57;100.00
32320;BME280;19080;51.750;5.888;2023-02-18T07:49:45;101615.72;;;10.67;100.00
32320;BME280;19080;51.750;5.888;2023-02-18T07:52:13;101602.13;;;10.57;100.00
32320;BME280;19080;51.750;5.888;2023-02-18T07:54:40;101600.44;;;10.59;100.00
32320;BME280;19080;51.750;5.888;2023-02-18T07:57:06;101532.09;;;10.19;100.00
32320;BME280;19080;51.750;5.888;2023-02-18T07:59:33;101608.22;;;10.53;100.00
32320;BME280;19080;51.750;5.888;2023-02-18T08:01:59;101635.97;;;10.64;100.00
32320;BME280;19080;51.750;5.888;2023-02-18T08:04:26;101625.00;;;10.52;100.00
32320;BME280;19080;51.750;5.888;2023-02-18T08:06:53;101626.81;;;10.53;100.00
32320;BME280;19080;51.750;5.888;2023-02-18T08:09:19;101615.16;;;10.48;100.00
32320;BME280;19080;51.750;5.888;2023-02-18T08:11:46;101637.41;;;10.53;100.00
32320;BME280;19080;51.750;5.888;2023-02-18T08:14:13;101552.19;;;10.10;100.00
32320;BME280;19080;51.750;5.888;2023-02-18T08:16:39;101556.09;;;10.22;100.00
32320;BME280;19080;51.750;5.888;2023-02-18T08:19:06;101630.91;;;10.73;100.00
32320;BME280;19080;51.750;5.888;2023-02-18T08:21:33;101643.56;;;10.83;100.00
32320;BME280;19080;51.750;5.888;2023-02-18T08:24:00;101596.25;;;10.68;100.00
32320;BME280;19080;51.750;5.888;2023-02-18T08:26:27;101533.19;;;10.25;100.00
32320;BME280;19080;51.750;5.888;2023-02-18T08:28:54;101645.53;;;10.90;100.00
32320;BME280;19080;51.750;5.888;2023-02-18T08:31:23;101640.31;;;10.93;100.00
32320;BME280;19080;51.750;5.888;2023-02-18T08:33:52;101611.47;;;10.74;100.00
32320;BME280;19080;51.750;5.888;2023-02-18T08:36:19;101618.81;;;10.84;100.00
32320;BME280;19080;51.750;5.888;2023-02-18T08:38:45;101620.59;;;10.85;100.00
32320;BME280;19080;51.750;5.888;2023-02-18T08:41:12;101552.41;;;10.50;100.00
32320;BME280;19080;51.750;5.888;2023-02-18T08:43:41;101630.63;;;10.95;100.00
32320;BME280;19080;51.750;5.888;2023-02-18T08:46:07;101552.41;;;10.50;100.00
32320;BME280;19080;51.750;5.888;2023-02-18T08:48:42;101600.91;;;10.77;100.00
32320;BME280;19080;51.750;5.888;2023-02-18T08:51:11;101551.50;;;10.49;100.00
32320;BME280;19080;51.750;5.888;2023-02-18T08:53:38;101626.09;;;10.91;100.00
32320;BME280;19080;51.750;5.888;2023-02-18T08:56:07;101550.72;;;10.53;100.00
32320;BME280;19080;51.750;5.888;2023-02-18T08:58:34;101558.88;;;10.61;100.00
32320;BME280;19080;51.750;5.888;2023-02-18T09:01:08;101652.97;;;11.03;100.00
32320;BME280;19080;51.750;5.888;2023-02-18T09:03:35;101646.78;;;11.04;100.00
32320;BME280;19080;51.750;5.888;2023-02-18T09:06:03;101625.34;;;10.64;100.00
32320;BME280;19080;51.750;5.888;2023-02-18T09:08:32;101643.00;;;10.62;100.00
32320;BME280;19080;51.750;5.888;2023-02-18T09:11:01;101583.38;;;10.19;100.00
32320;BME280;19080;51.750;5.888;2023-02-18T09:13:31;101581.59;;;10.18;100.00
32320;BME280;19080;51.750;5.888;2023-02-18T09:16:11;101520.47;;;9.84;100.00
32320;BME280;19080;51.750;5.888;2023-02-18T09:18:38;101641.53;;;10.40;100.00
32320;BME280;19080;51.750;5.888;2023-02-18T09:21:07;101625.25;;;10.28;100.00
32320;BME280;19080;51.750;5.888;2023-02-18T09:23:36;101513.78;;;9.66;100.00
32320;BME280;19080;51.750;5.888;2023-02-18T09:26:04;101634.16;;;10.30;100.00
32320;BME280;19080;51.750;5.888;2023-02-18T09:28:31;101645.94;;;10.39;100.00
32320;BME280;19080;51.750;5.888;2023-02-18T09:31:03;101573.91;;;9.97;100.00
32320;BME280;19080;51.750;5.888;2023-02-18T09:33:30;101642.34;;;10.37;100.00
32320;BME280;19080;51.750;5.888;2023-02-18T09:35:56;101625.16;;;10.25;100.00
32320;BME280;19080;51.750;5.888;2023-02-18T09:38:23;101618.75;;;10.18;100.00
32320;BME280;19080;51.750;5.888;2023-02-18T09:40:52;101641.03;;;10.23;100.00
32320;BME280;19080;51.750;5.888;2023-02-18T09:43:32;101662.63;;;10.35;100.00
32320;BME280;19080;51.750;5.888;2023-02-18T09:46:01;101645.66;;;10.30;100.00
32320;BME280;19080;51.750;5.888;2023-02-18T09:48:32;101605.13;;;10.06;100.00
32320;BME280;19080;51.750;5.888;2023-02-18T09:51:00;101604.34;;;10.10;100.00
32320;BME280;19080;51.750;5.888;2023-02-18T09:53:27;101659.88;;;10.32;100.00
32320;BME280;19080;51.750;5.888;2023-02-18T09:55:55;101625.97;;;10.22;100.00
32320;BME280;19080;51.750;5.888;2023-02-18T09:58:25;101564.06;;;9.93;100.00
32320;BME280;19080;51.750;5.888;2023-02-18T10:01:01;101635.84;;;10.28;100.00
32320;BME280;19080;51.750;5.888;2023-02-18T10:03:29;101603.34;;;10.06;100.00
32320;BME280;19080;51.750;5.888;2023-02-18T10:05:59;101584.84;;;10.08;100.00
32320;BME280;19080;51.750;5.888;2023-02-18T10:08:48;101660.19;;;10.44;100.00
32320;BME280;19080;51.750;5.888;2023-02-18T10:11:28;101668.47;;;10.55;100.00
32320;BME280;19080;51.750;5.888;2023-02-18T10:13:56;101651.41;;;10.47;100.00
32320;BME280;19080;51.750;5.888;2023-02-18T10:16:24;101633.75;;;10.48;100.00
32320;BME280;19080;51.750;5.888;2023-02-18T10:18:55;101577.91;;;10.13;100.00
32320;BME280;19080;51.750;5.888;2023-02-18T10:21:27;101688.38;;;10.71;100.00
32320;BME280;19080;51.750;5.888;2023-02-18T10:24:03;101647.00;;;10.48;100.00
32320;BME280;19080;51.750;5.888;2023-02-18T10:26:34;101691.13;;;10.74;100.00
32320;BME280;19080;51.750;5.888;2023-02-18T10:29:01;101601.38;;;10.28;100.00
32320;BME280;19080;51.750;5.888;2023-02-18T10:31:36;101680.25;;;10.65;100.00
32320;BME280;19080;51.750;5.888;2023-02-18T10:34:32;101673.22;;;10.67;100.00
32320;BME280;19080;51.750;5.888;2023-02-18T10:37:24;101688.25;;;10.66;100.00
32320;BME280;19080;51.750;5.888;2023-02-18T10:40:17;101620.44;;;10.16;100.00
32320;BME280;19080;51.750;5.888;2023-02-18T10:46:25;101666.88;;;10.30;100.00
32320;BME280;19080;51.750;5.888;2023-02-18T10:51:34;101683.72;;;10.31;100.00
32320;BME280;19080;51.750;5.888;2023-02-18T10:54:03;101636.28;;;10.13;100.00
32320;BME280;19080;51.750;5.888;2023-02-18T10:59:18;101706.34;;;10.50;100.00
32320;BME280;19080;51.750;5.888;2023-02-18T11:01:53;101673.81;;;10.25;100.00
32320;BME280;19080;51.750;5.888;2023-02-18T11:04:37;101705.31;;;10.44;100.00
32320;BME280;19080;51.750;5.888;2023-02-18T11:07:11;101711.38;;;10.40;100.00
32320;BME280;19080;51.750;5.888;2023-02-18T11:09:47;101716.69;;;10.40;100.00
32320;BME280;19080;51.750;5.888;2023-02-18T11:12:42;101706.06;;;10.40;100.00
32320;BME280;19080;51.750;5.888;2023-02-18T11:17:45;101663.78;;;10.17;100.00
32320;BME280;19080;51.750;5.888;2023-02-18T11:20:33;101680.84;;;10.23;100.00
32320;BME280;19080;51.750;5.888;2023-02-18T11:25:33;101706.25;;;10.47;100.00
32320;BME280;19080;51.750;5.888;2023-02-18T11:28:06;101633.31;;;10.02;100.00
32320;BME280;19080;51.750;5.888;2023-02-18T11:30:53;101614.59;;;9.98;100.00
32320;BME280;19080;51.750;5.888;2023-02-18T11:33:23;101691.94;;;10.41;100.00
32320;BME280;19080;51.750;5.888;2023-02-18T11:35:56;101689.44;;;10.46;100.00
32320;BME280;19080;51.750;5.888;2023-02-18T11:38:36;101695.72;;;10.50;100.00
32320;BME280;19080;51.750;5.888;2023-02-18T11:41:14;101661.72;;;10.35;100.00
32320;BME280;19080;51.750;5.888;2023-02-18T11:43:43;101682.50;;;10.51;100.00
32320;BME280;19080;51.750;5.888;2023-02-18T11:48:38;101606.16;;;10.11;100.00
32320;BME280;19080;51.750;5.888;2023-02-18T11:51:04;101667.72;;;10.61;100.00
32320;BME280;19080;51.750;5.888;2023-02-18T11:53:36;101680.22;;;10.96;100.00
32320;BME280;19080;51.750;5.888;2023-02-18T11:56:05;101657.25;;;10.98;100.00
32320;BME280;19080;51.750;5.888;2023-02-18T11:58:40;101602.78;;;10.81;100.00
32320;BME280;19080;51.750;5.888;2023-02-18T12:01:20;101581.47;;;10.78;100.00
32320;BME280;19080;51.750;5.888;2023-02-18T12:03:57;101633.25;;;11.28;100.00
32320;BME280;19080;51.750;5.888;2023-02-18T12:06:32;101656.75;;;11.84;100.00
32320;BME280;19080;51.750;5.888;2023-02-18T12:09:04;101595.91;;;11.60;100.00
32320;BME280;19080;51.750;5.888;2023-02-18T12:11:41;101667.28;;;12.18;100.00
32320;BME280;19080;51.750;5.888;2023-02-18T12:14:17;101581.84;;;11.65;100.00
32320;BME280;19080;51.750;5.888;2023-02-18T12:21:57;101659.72;;;11.96;100.00
32320;BME280;19080;51.750;5.888;2023-02-18T12:27:53;101631.91;;;11.82;100.00
32320;BME280;19080;51.750;5.888;2023-02-18T12:30:42;101582.44;;;11.52;100.00
32320;BME280;19080;51.750;5.888;2023-02-18T12:33:28;101566.84;;;11.30;100.00
32320;BME280;19080;51.750;5.888;2023-02-18T12:44:33;101675.69;;;11.61;100.00
32320;BME280;19080;51.750;5.888;2023-02-18T12:50:20;101665.94;;;11.60;100.00
32320;BME280;19080;51.750;5.888;2023-02-18T12:53:00;101662.53;;;11.66;100.00
32320;BME280;19080;51.750;5.888;2023-02-18T13:12:27;101645.50;;;12.37;100.00
32320;BME280;19080;51.750;5.888;2023-02-18T13:15:22;101585.31;;;12.00;100.00
32320;BME280;19080;51.750;5.888;2023-02-18T13:17:51;101661.72;;;12.50;100.00
32320;BME280;19080;51.750;5.888;2023-02-18T13:20:35;101667.47;;;12.71;100.00
32320;BME280;19080;51.750;5.888;2023-02-18T13:23:05;101560.00;;;12.22;100.00
32320;BME280;19080;51.750;5.888;2023-02-18T13:25:37;101663.06;;;12.71;100.00
32320;BME280;19080;51.750;5.888;2023-02-18T13:28:28;101586.59;;;12.21;100.00
32320;BME280;19080;51.750;5.888;2023-02-18T13:31:16;101575.16;;;12.26;100.00
32320;BME280;19080;51.750;5.888;2023-02-18T13:39:08;101647.09;;;12.73;100.00
32320;BME280;19080;51.750;5.888;2023-02-18T13:41:41;101649.69;;;12.70;100.00
32320;BME280;19080;51.750;5.888;2023-02-18T13:46:56;101596.69;;;12.37;100.00
32320;BME280;19080;51.750;5.888;2023-02-18T13:49:34;101680.00;;;12.75;100.00
32320;BME280;19080;51.750;5.888;2023-02-18T13:52:03;101575.97;;;12.22;100.00
32320;BME280;19080;51.750;5.888;2023-02-18T13:54:35;101642.28;;;12.54;100.00
32320;BME280;19080;51.750;5.888;2023-02-18T13:57:13;101661.03;;;12.60;100.00
32320;BME280;19080;51.750;5.888;2023-02-18T13:59:48;101591.94;;;12.22;100.00
32320;BME280;19080;51.750;5.888;2023-02-18T14:04:48;101680.84;;;12.73;100.00
32320;BME280;19080;51.750;5.888;2023-02-18T14:07:37;101678.44;;;12.86;100.00
32320;BME280;19080;51.750;5.888;2023-02-18T14:12:41;101656.00;;;12.75;100.00
32320;BME280;19080;51.750;5.888;2023-02-18T14:20:32;101682.03;;;12.88;100.00
32320;BME280;19080;51.750;5.888;2023-02-18T14:26:00;101692.69;;;12.88;100.00
32320;BME280;19080;51.750;5.888;2023-02-18T14:31:04;101626.34;;;12.57;100.00
32320;BME280;19080;51.750;5.888;2023-02-18T14:33:34;101564.00;;;12.46;100.00
32320;BME280;19080;51.750;5.888;2023-02-18T14:36:21;101662.78;;;13.04;100.00
32320;BME280;19080;51.750;5.888;2023-02-18T14:45:20;101692.88;;;13.46;100.00
32320;BME280;19080;51.750;5.888;2023-02-18T14:50:23;101682.84;;;13.85;100.00
32320;BME280;19080;51.750;5.888;2023-02-18T14:52:56;101678.88;;;14.21;100.00
32320;BME280;19080;51.750;5.888;2023-02-18T14:55:31;101635.66;;;13.83;100.00
32320;BME280;19080;51.750;5.888;2023-02-18T14:58:02;101647.50;;;14.03;100.00
32320;BME280;19080;51.750;5.888;2023-02-18T15:00:33;101686.97;;;14.25;100.00
32320;BME280;19080;51.750;5.888;2023-02-18T15:03:01;101655.28;;;13.88;100.00